createdAt,value
2023-05-16T00:00:53.336Z,11.77
2023-05-16T00:03:21.129Z,10.93
2023-05-16T00:05:48.360Z,11.85
2023-05-16T00:08:15.728Z,10.85
2023-05-16T00:10:42.852Z,10.18
2023-05-16T00:13:10.156Z,9.93
2023-05-16T00:15:38.560Z,10.68
2023-05-16T00:18:05.836Z,10.60
2023-05-16T00:20:33.265Z,10.63
2023-05-16T00:23:01.408Z,10.82
2023-05-16T00:25:28.956Z,11.48
2023-05-16T00:27:56.271Z,10.90
2023-05-16T00:30:23.713Z,10.77
2023-05-16T00:32:53.971Z,11.23
2023-05-16T00:35:21.282Z,11.57
2023-05-16T00:37:48.726Z,12.60
2023-05-16T00:40:15.966Z,11.95
2023-05-16T00:42:43.136Z,11.50
2023-05-16T00:45:10.519Z,10.50
2023-05-16T00:47:37.894Z,10.68
2023-05-16T00:50:06.054Z,10.80
2023-05-16T00:52:33.864Z,11.35
2023-05-16T00:55:01.536Z,12.25
2023-05-16T00:57:28.640Z,12.10
2023-05-16T00:59:56.098Z,12.73
2023-05-16T01:02:23.311Z,13.30
2023-05-16T01:04:51.869Z,12.52
2023-05-16T01:07:19.305Z,12.63
2023-05-16T01:09:46.648Z,13.02
2023-05-16T01:12:21.209Z,13.02
2023-05-16T01:15:06.341Z,11.77
2023-05-16T01:17:39.385Z,12.70
2023-05-16T01:20:15.571Z,11.20
2023-05-16T01:22:51.183Z,11.32
2023-05-16T01:25:33.269Z,11.38
2023-05-16T01:28:00.545Z,12.35
2023-05-16T01:30:27.684Z,11.80
2023-05-16T01:32:54.886Z,12.43
2023-05-16T01:35:22.078Z,12.80
2023-05-16T01:37:56.236Z,12.63
2023-05-16T01:40:35.695Z,12.55
2023-05-16T01:43:06.117Z,12.15
2023-05-16T01:45:35.664Z,10.93
2023-05-16T01:48:14.416Z,11.55
2023-05-16T01:50:44.679Z,12.60
2023-05-16T01:53:17.445Z,12.77
2023-05-16T01:55:49.326Z,11.95
2023-05-16T01:58:18.147Z,13.27
2023-05-16T02:00:45.376Z,13.10
2023-05-16T02:03:12.667Z,13.45
2023-05-16T02:05:39.959Z,13.38
2023-05-16T02:08:08.197Z,14.07
2023-05-16T02:10:35.416Z,15.90
2023-05-16T02:13:05.797Z,15.45
2023-05-16T02:15:33.255Z,15.05
2023-05-16T02:18:00.505Z,16.27
2023-05-16T02:20:27.799Z,16.00
2023-05-16T02:22:55.020Z,14.95
2023-05-16T02:25:22.173Z,14.00
2023-05-16T02:27:49.469Z,14.30
2023-05-16T02:30:16.608Z,14.98
2023-05-16T02:32:45.487Z,17.13
2023-05-16T02:35:12.785Z,15.55
2023-05-16T02:37:40.038Z,15.48
2023-05-16T02:40:08.013Z,17.75
2023-05-16T02:42:35.370Z,16.40
2023-05-16T02:45:02.596Z,17.60
2023-05-16T02:47:29.864Z,18.98
2023-05-16T02:49:57.294Z,19.00
2023-05-16T02:52:24.587Z,20.55
2023-05-16T02:55:09.330Z,20.70
2023-05-16T02:57:38.837Z,18.02
2023-05-16T03:00:06.417Z,18.63
2023-05-16T03:02:33.851Z,16.45
2023-05-16T03:05:01.187Z,18.27
2023-05-16T03:07:28.394Z,19.20
2023-05-16T03:09:55.614Z,17.52
2023-05-16T03:12:22.806Z,19.10
2023-05-16T03:14:49.994Z,20.90
2023-05-16T03:17:17.357Z,16.60
2023-05-16T03:19:44.540Z,14.52
2023-05-16T03:22:12.012Z,16.02
2023-05-16T03:24:39.215Z,14.85
2023-05-16T03:27:06.407Z,13.80
2023-05-16T03:29:33.860Z,13.00
2023-05-16T03:32:01.186Z,13.93
2023-05-16T03:34:28.486Z,14.40
2023-05-16T03:36:55.672Z,11.90
2023-05-16T03:39:22.958Z,12.25
2023-05-16T03:41:50.327Z,11.52
2023-05-16T03:44:17.504Z,13.05
2023-05-16T03:46:44.710Z,12.73
2023-05-16T03:49:11.909Z,12.82
2023-05-16T03:51:39.325Z,12.40
2023-05-16T03:54:06.458Z,12.60
2023-05-16T03:56:33.698Z,13.38
2023-05-16T03:59:00.898Z,11.95
2023-05-16T04:01:28.270Z,10.98
2023-05-16T04:03:55.757Z,10.68
2023-05-16T04:06:23.035Z,10.18
2023-05-16T04:08:50.522Z,10.23
2023-05-16T04:11:17.760Z,10.70
2023-05-16T04:13:44.977Z,11.82
2023-05-16T04:16:13.134Z,12.93
2023-05-16T04:18:40.408Z,10.63
2023-05-16T04:21:07.758Z,11.93
2023-05-16T04:23:34.967Z,10.02
2023-05-16T04:26:04.741Z,9.27
2023-05-16T04:28:32.589Z,10.15
2023-05-16T04:30:59.818Z,10.10
2023-05-16T04:33:27.074Z,10.40
2023-05-16T04:35:54.808Z,10.02
2023-05-16T04:38:22.684Z,11.25
2023-05-16T04:40:52.956Z,9.35
2023-05-16T04:43:20.577Z,8.77
2023-05-16T04:45:47.720Z,8.25
2023-05-16T04:48:15.675Z,8.82
2023-05-16T04:50:42.869Z,8.60
2023-05-16T04:53:10.341Z,8.30
2023-05-16T04:55:37.475Z,8.98
2023-05-16T04:58:04.649Z,8.40
2023-05-16T05:00:32.300Z,8.73
2023-05-16T05:02:59.728Z,8.63
2023-05-16T05:05:27.425Z,8.15
2023-05-16T05:07:54.869Z,7.25
2023-05-16T05:10:22.071Z,8.88
2023-05-16T05:12:49.256Z,9.95
2023-05-16T05:15:16.440Z,9.30
2023-05-16T05:17:43.734Z,9.02
2023-05-16T05:20:11.666Z,9.88
2023-05-16T05:22:38.952Z,13.80
2023-05-16T05:25:06.703Z,15.55
2023-05-16T05:27:33.956Z,16.98
2023-05-16T05:30:01.141Z,15.88
2023-05-16T05:32:28.343Z,16.27
2023-05-16T05:34:56.229Z,14.68
2023-05-16T05:37:23.398Z,14.85
2023-05-16T05:39:50.896Z,15.23
2023-05-16T05:42:18.068Z,13.30
2023-05-16T05:44:45.261Z,12.23
2023-05-16T05:47:12.772Z,12.07
2023-05-16T05:49:40.056Z,13.25
2023-05-16T05:52:07.371Z,13.25
2023-05-16T05:54:34.999Z,12.20
2023-05-16T05:57:02.204Z,12.55
2023-05-16T05:59:29.385Z,12.13
2023-05-16T06:01:57.060Z,11.93
2023-05-16T06:04:24.427Z,12.27
2023-05-16T06:06:51.564Z,11.38
2023-05-16T06:09:18.780Z,11.63
2023-05-16T06:11:52.386Z,11.43
2023-05-16T06:16:46.809Z,11.77
2023-05-16T06:19:16.343Z,10.18
2023-05-16T06:21:44.195Z,17.98
2023-05-16T06:24:12.474Z,64.05
2023-05-16T06:26:39.685Z,11.55
2023-05-16T06:29:06.883Z,11.20
2023-05-16T06:31:34.246Z,10.90
2023-05-16T06:34:01.549Z,9.90
2023-05-16T06:36:28.967Z,11.25
2023-05-16T06:38:56.241Z,10.40
2023-05-16T06:41:23.399Z,10.00
2023-05-16T06:43:50.646Z,9.63
2023-05-16T06:46:17.894Z,9.20
2023-05-16T06:48:45.115Z,10.27
2023-05-16T06:51:12.353Z,9.15
2023-05-16T06:53:39.597Z,9.65
2023-05-16T06:56:09.792Z,9.32
2023-05-16T06:58:37.091Z,8.73
2023-05-16T07:01:04.431Z,9.18
2023-05-16T07:03:32.216Z,8.02
2023-05-16T07:05:59.659Z,8.48
2023-05-16T07:08:26.920Z,8.73
2023-05-16T07:10:54.191Z,7.75
2023-05-16T07:13:21.559Z,8.07
2023-05-16T07:15:48.799Z,7.65
2023-05-16T07:18:16.176Z,7.68
2023-05-16T07:20:43.491Z,7.25
2023-05-16T07:23:11.122Z,6.93
2023-05-16T07:25:38.581Z,7.35
2023-05-16T07:28:06.093Z,6.40
2023-05-16T07:30:33.358Z,7.57
2023-05-16T07:33:00.666Z,8.50
2023-05-16T07:35:28.170Z,11.35
2023-05-16T07:37:55.721Z,8.05
2023-05-16T07:40:26.031Z,8.70
2023-05-16T07:42:53.203Z,12.32
2023-05-16T07:45:20.677Z,7.90
2023-05-16T07:47:47.914Z,7.53
2023-05-16T07:50:15.330Z,7.93
2023-05-16T07:52:42.637Z,7.88
2023-05-16T07:55:10.169Z,9.13
2023-05-16T07:57:37.625Z,8.10
2023-05-16T08:00:05.242Z,8.85
2023-05-16T08:02:32.562Z,7.38
2023-05-16T08:04:59.783Z,7.85
2023-05-16T08:07:27.266Z,7.38
2023-05-16T08:09:54.483Z,7.00
2023-05-16T08:12:21.700Z,8.30
2023-05-16T08:14:48.992Z,9.02
2023-05-16T08:17:16.534Z,8.15
2023-05-16T08:19:43.766Z,8.80
2023-05-16T08:22:13.714Z,8.48
2023-05-16T08:24:41.274Z,8.75
2023-05-16T08:27:08.961Z,8.40
2023-05-16T08:29:36.287Z,8.57
2023-05-16T08:32:03.678Z,8.55
2023-05-16T08:34:34.513Z,7.68
2023-05-16T08:37:01.738Z,7.40
2023-05-16T08:39:30.680Z,7.25
2023-05-16T08:41:58.975Z,8.10
2023-05-16T08:44:26.643Z,7.82
2023-05-16T08:46:54.392Z,6.35
2023-05-16T08:49:22.390Z,6.93
2023-05-16T08:51:52.056Z,5.97
2023-05-16T08:54:19.411Z,5.75
2023-05-16T08:56:48.311Z,5.47
2023-05-16T08:59:15.670Z,5.55
2023-05-16T09:01:43.062Z,4.43
2023-05-16T09:04:10.796Z,5.03
2023-05-16T09:06:38.777Z,4.97
2023-05-16T09:09:08.182Z,4.22
2023-05-16T09:11:37.174Z,5.30
2023-05-16T09:14:06.014Z,4.75
2023-05-16T09:16:33.300Z,4.70
2023-05-16T09:19:01.716Z,4.88
2023-05-16T09:21:31.978Z,4.60
2023-05-16T09:24:05.953Z,4.40
2023-05-16T09:26:37.962Z,4.53
2023-05-16T09:29:12.260Z,3.35
2023-05-16T09:31:39.578Z,4.35
2023-05-16T09:34:12.301Z,5.07
2023-05-16T09:36:40.671Z,4.77
2023-05-16T09:39:09.431Z,4.32
2023-05-16T09:41:38.929Z,4.35
2023-05-16T09:44:06.891Z,3.55
2023-05-16T09:46:38.076Z,3.65
2023-05-16T09:49:05.327Z,3.83
2023-05-16T09:51:33.762Z,3.53
2023-05-16T09:54:01.317Z,3.65
2023-05-16T09:56:30.165Z,3.70
2023-05-16T09:58:57.980Z,3.75
2023-05-16T10:01:26.056Z,3.40
2023-05-16T10:03:53.533Z,3.92
2023-05-16T10:06:21.140Z,4.05
2023-05-16T10:08:48.586Z,3.30
2023-05-16T10:11:17.129Z,3.33
2023-05-16T10:13:49.406Z,3.47
2023-05-16T10:16:16.989Z,3.42
2023-05-16T10:18:44.565Z,4.03
2023-05-16T10:21:15.773Z,3.28
2023-05-16T10:23:44.302Z,3.13
2023-05-16T10:26:14.209Z,3.10
2023-05-16T10:28:41.681Z,2.80
2023-05-16T10:31:09.182Z,3.30
2023-05-16T10:33:37.117Z,3.22
2023-05-16T10:36:05.638Z,3.15
2023-05-16T10:38:33.145Z,3.22
2023-05-16T10:41:00.448Z,2.15
2023-05-16T10:43:28.641Z,2.50
2023-05-16T10:45:56.903Z,2.35
2023-05-16T10:48:34.430Z,2.28
2023-05-16T10:51:03.379Z,1.73
2023-05-16T10:53:30.718Z,2.42
2023-05-16T10:56:01.537Z,2.10
2023-05-16T10:58:32.352Z,2.05
2023-05-16T11:01:19.747Z,1.73
2023-05-16T11:04:13.389Z,2.30
2023-05-16T11:06:43.568Z,2.65
2023-05-16T11:09:13.982Z,2.35
2023-05-16T11:11:47.376Z,2.20
2023-05-16T11:14:26.551Z,2.03
2023-05-16T11:17:03.146Z,2.53
2023-05-16T11:19:47.014Z,1.95
2023-05-16T11:22:21.011Z,1.77
2023-05-16T11:25:05.601Z,1.92
2023-05-16T11:27:34.076Z,1.55
2023-05-16T11:30:11.612Z,1.60
2023-05-16T11:32:40.066Z,1.67
2023-05-16T11:35:09.565Z,1.80
2023-05-16T11:37:38.521Z,1.70
2023-05-16T11:40:09.884Z,1.30
2023-05-16T11:42:38.220Z,2.58
2023-05-16T11:45:09.534Z,1.70
2023-05-16T11:47:38.907Z,1.58
2023-05-16T11:50:13.871Z,1.52
2023-05-16T11:52:43.819Z,1.20
2023-05-16T11:55:11.895Z,1.27
2023-05-16T11:57:42.760Z,1.77
2023-05-16T12:00:20.117Z,1.70
2023-05-16T12:02:50.930Z,1.60
2023-05-16T12:05:20.113Z,1.55
2023-05-16T12:07:48.242Z,2.15
2023-05-16T12:10:17.247Z,1.75
2023-05-16T12:12:49.845Z,1.83
2023-05-16T12:15:17.860Z,1.73
2023-05-16T12:17:45.202Z,1.67
2023-05-16T12:20:14.563Z,1.80
2023-05-16T12:22:41.986Z,1.75
2023-05-16T12:25:28.258Z,1.83
2023-05-16T12:27:56.588Z,2.00
2023-05-16T12:30:25.002Z,2.45
2023-05-16T12:32:58.666Z,2.55
2023-05-16T12:35:33.219Z,2.70
2023-05-16T12:38:01.148Z,1.80
2023-05-16T12:40:31.734Z,1.52
2023-05-16T12:42:59.188Z,1.90
2023-05-16T12:45:28.036Z,1.77
2023-05-16T12:47:55.393Z,1.70
2023-05-16T12:50:23.240Z,1.52
2023-05-16T12:52:51.440Z,1.60
2023-05-16T12:55:19.208Z,1.92
2023-05-16T12:57:50.277Z,1.70
2023-05-16T13:00:19.128Z,2.70
2023-05-16T13:02:47.093Z,1.58
2023-05-16T13:05:14.438Z,1.90
2023-05-16T13:07:41.715Z,1.30
2023-05-16T13:10:12.694Z,2.05
2023-05-16T13:12:40.887Z,1.70
2023-05-16T13:15:08.849Z,1.70
2023-05-16T13:17:36.777Z,1.55
2023-05-16T13:20:14.860Z,4.07
2023-05-16T13:22:43.274Z,28.23
2023-05-16T13:25:10.889Z,2.22
2023-05-16T13:27:38.157Z,2.60
2023-05-16T13:30:05.848Z,1.75
2023-05-16T13:32:33.036Z,4.82
2023-05-16T13:35:00.616Z,5.28
2023-05-16T13:37:27.862Z,4.28
2023-05-16T13:39:56.147Z,5.40
2023-05-16T13:42:23.387Z,2.15
2023-05-16T13:44:50.577Z,3.95
2023-05-16T13:47:17.827Z,5.95
2023-05-16T13:49:45.521Z,2.20
2023-05-16T13:52:12.785Z,1.58
2023-05-16T13:54:41.466Z,1.83
2023-05-16T13:57:08.772Z,15.40
2023-05-16T14:02:06.111Z,1.60
2023-05-16T14:04:33.433Z,2.17
2023-05-16T14:07:00.733Z,1.60
2023-05-16T14:09:28.013Z,1.88
2023-05-16T14:11:55.453Z,1.92
2023-05-16T14:14:22.879Z,1.42
2023-05-16T14:16:50.426Z,1.98
2023-05-16T14:19:19.479Z,1.33
2023-05-16T14:21:47.035Z,1.38
2023-05-16T14:24:14.204Z,1.27
2023-05-16T14:26:41.846Z,1.77
2023-05-16T14:29:09.393Z,4.38
2023-05-16T14:31:36.882Z,1.92
2023-05-16T14:34:04.278Z,1.90
2023-05-16T14:36:31.960Z,2.05
2023-05-16T14:38:59.489Z,1.20
2023-05-16T14:41:26.810Z,1.50
2023-05-16T14:43:53.970Z,1.73
2023-05-16T14:46:21.327Z,0.77
2023-05-16T14:48:48.866Z,2.90
2023-05-16T14:51:16.605Z,1.00
2023-05-16T14:53:46.013Z,1.20
2023-05-16T14:56:14.096Z,1.13
2023-05-16T14:58:41.337Z,1.40
2023-05-16T15:01:08.580Z,1.33
2023-05-16T15:03:50.703Z,1.23
2023-05-16T15:06:22.274Z,1.05
2023-05-16T15:08:50.096Z,1.67
2023-05-16T15:11:17.314Z,1.65
2023-05-16T15:13:44.544Z,1.30
2023-05-16T15:16:12.271Z,1.58
2023-05-16T15:18:40.881Z,1.27
2023-05-16T15:21:09.058Z,1.17
2023-05-16T15:23:36.849Z,1.10
2023-05-16T15:26:04.543Z,1.10
2023-05-16T15:28:31.789Z,0.75
2023-05-16T15:30:59.087Z,1.23
2023-05-16T15:33:26.449Z,0.80
2023-05-16T15:35:53.688Z,1.27
2023-05-16T15:38:20.977Z,1.17
2023-05-16T15:40:52.775Z,1.20
2023-05-16T15:43:28.751Z,1.23
2023-05-16T15:45:56.006Z,1.58
2023-05-16T15:48:23.286Z,1.10
2023-05-16T15:50:50.907Z,1.00
2023-05-16T15:53:18.124Z,1.75
2023-05-16T15:55:47.910Z,1.10
2023-05-16T15:58:15.116Z,1.30
2023-05-16T16:00:43.671Z,0.60
2023-05-16T16:03:11.189Z,1.00
2023-05-16T16:05:38.833Z,0.95
2023-05-16T16:08:06.366Z,0.88
2023-05-16T16:10:33.607Z,1.08
2023-05-16T16:13:05.181Z,0.80
2023-05-16T16:15:33.481Z,1.08
2023-05-16T16:18:01.265Z,0.80
2023-05-16T16:20:28.836Z,3.70
2023-05-16T16:22:56.148Z,1.08
2023-05-16T16:25:23.428Z,1.42
2023-05-16T16:27:52.153Z,1.85
2023-05-16T16:30:19.542Z,0.80
2023-05-16T16:32:48.965Z,1.00
2023-05-16T16:35:16.415Z,0.85
2023-05-16T16:37:54.498Z,1.10
2023-05-16T16:40:31.290Z,0.60
2023-05-16T16:42:58.913Z,0.52
2023-05-16T16:45:27.029Z,1.02
2023-05-16T16:47:54.468Z,1.08
2023-05-16T16:50:21.681Z,0.70
2023-05-16T16:52:48.915Z,1.02
2023-05-16T16:55:16.208Z,0.80
2023-05-16T16:57:43.541Z,1.02
2023-05-16T17:00:12.058Z,0.80
2023-05-16T17:02:39.387Z,1.38
2023-05-16T17:05:07.161Z,1.00
2023-05-16T17:07:34.330Z,0.80
2023-05-16T17:10:03.889Z,14.95
2023-05-16T17:12:34.557Z,4.38
2023-05-16T17:15:02.439Z,1.02
2023-05-16T17:17:32.429Z,0.90
2023-05-16T17:19:59.625Z,0.98
2023-05-16T17:22:26.888Z,0.93
2023-05-16T17:24:54.150Z,0.90
2023-05-16T17:27:21.411Z,0.80
2023-05-16T17:29:48.834Z,0.85
2023-05-16T17:32:17.362Z,0.80
2023-05-16T17:34:44.730Z,0.70
2023-05-16T17:37:12.186Z,1.00
2023-05-16T17:39:39.520Z,1.13
2023-05-16T17:42:08.904Z,1.23
2023-05-16T17:44:37.140Z,1.08
2023-05-16T17:47:04.358Z,1.00
2023-05-16T17:49:31.663Z,1.08
2023-05-16T17:51:59.155Z,1.55
2023-05-16T17:54:30.550Z,1.92
2023-05-16T17:56:57.821Z,0.95
2023-05-16T17:59:27.387Z,1.23
2023-05-16T18:01:55.304Z,1.50
2023-05-16T18:04:23.721Z,1.50
2023-05-16T18:06:54.336Z,1.45
2023-05-16T18:09:21.875Z,1.40
2023-05-16T18:11:49.119Z,1.10
2023-05-16T18:14:17.180Z,0.82
2023-05-16T18:16:44.514Z,1.05
2023-05-16T18:19:12.672Z,0.90
2023-05-16T18:21:40.264Z,1.15
2023-05-16T18:24:12.938Z,0.60
2023-05-16T18:26:40.740Z,1.20
2023-05-16T18:29:11.272Z,1.30
2023-05-16T18:31:42.308Z,1.00
2023-05-16T18:34:10.569Z,1.17
2023-05-16T18:36:37.877Z,0.80
2023-05-16T18:39:05.610Z,1.27
2023-05-16T18:41:32.846Z,0.98
2023-05-16T18:44:00.133Z,1.10
2023-05-16T18:46:27.411Z,3.20
2023-05-16T18:48:57.706Z,3.30
2023-05-16T18:51:25.329Z,1.38
2023-05-16T18:53:52.900Z,1.10
2023-05-16T18:56:20.436Z,1.25
2023-05-16T18:58:47.875Z,1.50
2023-05-16T19:01:15.066Z,1.70
2023-05-16T19:03:42.363Z,0.85
2023-05-16T19:06:09.930Z,1.00
2023-05-16T19:08:47.558Z,0.90
2023-05-16T19:11:15.237Z,1.10
2023-05-16T19:13:42.717Z,1.25
2023-05-16T19:16:09.993Z,0.90
2023-05-16T19:18:37.496Z,0.98
2023-05-16T19:21:05.013Z,0.90
2023-05-16T19:23:32.224Z,1.05
2023-05-16T19:25:59.476Z,0.88
2023-05-16T19:28:26.770Z,0.73
2023-05-16T19:30:53.992Z,0.88
2023-05-16T19:33:21.781Z,0.80
2023-05-16T19:35:51.534Z,0.75
2023-05-16T19:38:19.910Z,1.00
2023-05-16T19:40:47.403Z,0.90
2023-05-16T19:43:14.715Z,0.75
2023-05-16T19:45:44.975Z,0.80
2023-05-16T19:48:12.502Z,1.00
2023-05-16T19:50:39.837Z,1.05
2023-05-16T19:53:07.126Z,0.70
2023-05-16T19:55:35.792Z,0.95
2023-05-16T19:58:03.973Z,0.85
2023-05-16T20:00:31.312Z,0.60
2023-05-16T20:02:58.742Z,0.90
2023-05-16T20:05:27.127Z,0.80
2023-05-16T20:07:55.967Z,0.80
2023-05-16T20:10:23.300Z,0.95
2023-05-16T20:12:50.650Z,1.08
2023-05-16T20:15:18.822Z,0.70
2023-05-16T20:17:46.307Z,1.25
2023-05-16T20:20:13.786Z,0.90
2023-05-16T20:22:41.879Z,0.63
2023-05-16T20:25:09.758Z,0.85
2023-05-16T20:27:37.596Z,0.70
2023-05-16T20:30:06.769Z,0.75
2023-05-16T20:32:34.433Z,0.75
2023-05-16T20:35:04.242Z,1.08
2023-05-16T20:37:31.524Z,1.48
2023-05-16T20:39:58.963Z,1.42
2023-05-16T20:42:26.172Z,0.90
2023-05-16T20:44:53.527Z,0.90
2023-05-16T20:47:20.892Z,0.80
2023-05-16T20:49:48.177Z,0.90
2023-05-16T20:52:15.451Z,1.13
2023-05-16T20:54:42.651Z,0.98
2023-05-16T20:57:09.836Z,0.82
2023-05-16T20:59:40.042Z,0.90
2023-05-16T21:02:09.745Z,0.93
2023-05-16T21:04:40.339Z,0.90
2023-05-16T21:07:08.586Z,0.80
2023-05-16T21:09:37.823Z,1.02
2023-05-16T21:12:05.543Z,0.93
2023-05-16T21:14:32.786Z,1.10
2023-05-16T21:16:59.982Z,1.00
2023-05-16T21:19:27.381Z,1.10
2023-05-16T21:21:54.785Z,1.20
2023-05-16T21:24:21.963Z,0.95
2023-05-16T21:26:49.253Z,0.98
2023-05-16T21:29:16.858Z,1.00
2023-05-16T21:31:44.309Z,1.05
2023-05-16T21:34:11.680Z,1.15
2023-05-16T21:36:39.113Z,1.23
2023-05-16T21:39:06.540Z,1.20
2023-05-16T21:41:33.734Z,1.17
2023-05-16T21:44:00.917Z,0.85
2023-05-16T21:46:28.177Z,0.90
2023-05-16T21:48:55.485Z,1.15
2023-05-16T21:51:22.713Z,1.50
2023-05-16T21:53:49.883Z,1.08
2023-05-16T21:56:17.850Z,1.20
2023-05-16T21:58:45.346Z,1.05
2023-05-16T22:01:12.977Z,1.00
2023-05-16T22:03:40.624Z,1.35
2023-05-16T22:06:07.938Z,0.95
2023-05-16T22:08:35.153Z,0.95
2023-05-16T22:11:02.402Z,1.17
2023-05-16T22:13:29.597Z,1.30
2023-05-16T22:18:30.652Z,0.95
2023-05-16T22:20:58.099Z,1.10
2023-05-16T22:23:25.374Z,1.08
2023-05-16T22:25:52.643Z,1.52
2023-05-16T22:28:19.837Z,1.75
2023-05-16T22:30:47.066Z,1.35
2023-05-16T22:33:14.383Z,1.25
2023-05-16T22:35:41.709Z,1.42
2023-05-16T22:38:08.928Z,1.35
2023-05-16T22:40:36.672Z,1.20
2023-05-16T22:43:04.232Z,1.70
2023-05-16T22:45:31.504Z,1.40
2023-05-16T22:47:58.980Z,1.30
2023-05-16T22:50:26.231Z,1.58
2023-05-16T22:52:53.621Z,1.60
2023-05-16T22:55:21.383Z,0.95
2023-05-16T22:57:48.634Z,1.30
2023-05-16T23:00:16.355Z,1.00
2023-05-16T23:02:43.632Z,1.23
2023-05-16T23:05:10.953Z,1.42
2023-05-16T23:07:38.144Z,1.30
2023-05-16T23:10:06.074Z,1.10
2023-05-16T23:12:33.268Z,1.35
2023-05-16T23:15:00.546Z,1.20
2023-05-16T23:17:28.077Z,1.20
2023-05-16T23:19:55.721Z,2.13
2023-05-16T23:22:23.038Z,1.13
2023-05-16T23:24:50.624Z,1.42
2023-05-16T23:27:17.838Z,1.15
2023-05-16T23:29:45.064Z,1.10
2023-05-16T23:32:12.333Z,1.60
2023-05-16T23:34:39.607Z,1.52
2023-05-16T23:37:06.851Z,1.15
2023-05-16T23:39:34.105Z,1.30
2023-05-16T23:42:01.771Z,1.20
2023-05-16T23:44:29.802Z,1.90
2023-05-16T23:46:56.967Z,1.52
2023-05-16T23:49:24.175Z,1.65
2023-05-16T23:54:21.536Z,1.38
2023-05-16T23:56:48.966Z,1.58
2023-05-16T23:59:16.470Z,1.58
